Packwaukee, WI (53953)

9:37 AM CST on February 14, 2016 (GMT -0600)
Marquette County | | Change Station
CLOSE
Current Station
Personal Weather Station
Location: Montello, WI
Elevation: 797 ft
Nearby Weather Stations

Elev 797 ft 43.79 °N, 89.34 °W | Updated 1 minute ago

Overcast
Overcast
9.0 °F
Feels Like 9 °F
N
0.0
Wind Variable Wind from SSW
Gusts 5.0 mph

Today
High -- | Low -- °F
--% Chance of Precip.
Yesterday
High -- | Low -- °F
Precip. -- in
Pressure 30.30 in
Visibility 10.0 miles
Clouds Clear
Windchill 9 °F
Dew Point 3 °F
Humidity 76%
Rainfall Not available.
Snow Depth Not available.
6:58 AM 5:26 PM
Waxing Crescent, 42% visible
METAR KY50 141456Z AUTO 10003KT 10SM CLR M16/M23 A3024 RMK AO2 TSNO 58030 T11611227 SLP261
Pressure 30.30 in
Visibility 10.0 miles
Clouds Clear
Windchill 9 °F
Dew Point 3 °F
Humidity 76%
Rainfall Not available.
Snow Depth Not available.
6:58 AM 5:26 PM
Waxing Crescent, 42% visible
METAR KY50 141456Z AUTO 10003KT 10SM CLR M16/M23 A3024 RMK AO2 TSNO 58030 T11611227 SLP261

10-Day Weather Forecast

Almanac

Astronomy

Feb. 14, 2016 Rise Set
Actual Time
Civil Twilight
Nautical Twilight
Astronomical Twilight
Moon
Length of Visible Light
Length of Day
Tomorrow will be .
, % of the Moon is Illuminated

Today's Extremes

State Highs State Lows

Community

WunderPhotos

Upload Photos

1,892,795 photos uploaded!

WunderBlog® & News

Nearby

Air Quality

  Air Quality AQ Index Pollutant
Not available.

Snow Depth

Station Depth Elevation

Earthquake Activity

City Distance Mag. Time & Date
Minimum magnitude displayed is 2.5.

Coastal Water Temperatures

Place Temperature

Stations

Nearby Weather Stations

Station Location Temp. Windchill Dew Point Humidity Wind Precip. Elev Updated Type
                   

Watches & Warnings

There are currently no watches in effect.